sensor_id;sensor_type;location;lat;lon;timestamp;P1;P2;P0
72918;PMS7003;61063;55.700;26.994;2023-01-29T00:01:45;0.8;0.5;0.4
72918;PMS7003;61063;55.700;26.994;2023-01-29T00:06:47;1.2;0.4;0.2
72918;PMS7003;61063;55.700;26.994;2023-01-29T00:11:13;0.9;0.5;0.4
72918;PMS7003;61063;55.700;26.994;2023-01-29T00:16:23;0.9;0.5;0.3
72918;PMS7003;61063;55.700;26.994;2023-01-29T00:21:23;1.1;0.7;0.4
72918;PMS7003;61063;55.700;26.994;2023-01-29T00:26:47;1.4;0.6;0.4
72918;PMS7003;61063;55.700;26.994;2023-01-29T00:31:49;1.2;0.7;0.5
72918;PMS7003;61063;55.700;26.994;2023-01-29T00:36:21;1.6;0.9;0.7
72918;PMS7003;61063;55.700;26.994;2023-01-29T00:41:57;1.4;0.8;0.6
72918;PMS7003;61063;55.700;26.994;2023-01-29T00:46:13;1.6;0.7;0.4
72918;PMS7003;61063;55.700;26.994;2023-01-29T00:51:25;0.8;0.5;0.3
72918;PMS7003;61063;55.700;26.994;2023-01-29T00:56:13;1.9;0.8;0.6
72918;PMS7003;61063;55.700;26.994;2023-01-29T01:01:47;1.5;0.5;0.3
72918;PMS7003;61063;55.700;26.994;2023-01-29T01:06:23;1.1;0.8;0.6
72918;PMS7003;61063;55.700;26.994;2023-01-29T01:11:23;1;0.8;0.6
72918;PMS7003;61063;55.700;26.994;2023-01-29T01:16:14;1.6;1;0.7
72918;PMS7003;61063;55.700;26.994;2023-01-29T01:21:47;1.6;0.7;0.7
72918;PMS7003;61063;55.700;26.994;2023-01-29T01:27:01;1.8;1;0.7
72918;PMS7003;61063;55.700;26.994;2023-01-29T01:31:33;1.8;0.8;0.6
72918;PMS7003;61063;55.700;26.994;2023-01-29T01:36:57;1.7;0.9;0.7
72918;PMS7003;61063;55.700;26.994;2023-01-29T01:41:13;1.5;0.7;0.5
72918;PMS7003;61063;55.700;26.994;2023-01-29T01:46:43;1.9;0.9;0.7
72918;PMS7003;61063;55.700;26.994;2023-01-29T01:51:23;1.5;1;0.9
72918;PMS7003;61063;55.700;26.994;2023-01-29T01:56:35;1.5;0.7;0.7
72918;PMS7003;61063;55.700;26.994;2023-01-29T02:01:13;1.5;0.7;0.5
72918;PMS7003;61063;55.700;26.994;2023-01-29T02:06:13;1.4;0.9;0.5
72918;PMS7003;61063;55.700;26.994;2023-01-29T02:11:47;1.5;0.9;0.7
72918;PMS7003;61063;55.700;26.994;2023-01-29T02:16:59;2.3;1.2;0.8
72918;PMS7003;61063;55.700;26.994;2023-01-29T02:22:05;1.4;0.8;0.5
72918;PMS7003;61063;55.700;26.994;2023-01-29T02:26:50;1.5;0.9;0.8
72918;PMS7003;61063;55.700;26.994;2023-01-29T02:31:54;1.8;1;0.7
72918;PMS7003;61063;55.700;26.994;2023-01-29T02:36:39;1;0.4;0.2
72918;PMS7003;61063;55.700;26.994;2023-01-29T02:41:54;1.6;1;0.8
72918;PMS7003;61063;55.700;26.994;2023-01-29T02:46:27;1.5;0.9;0.8
72918;PMS7003;61063;55.700;26.994;2023-01-29T02:51:50;1.5;0.6;0.5
72918;PMS7003;61063;55.700;26.994;2023-01-29T02:56:38;1.4;1;0.7
72918;PMS7003;61063;55.700;26.994;2023-01-29T03:02:01;1.5;0.8;0.6
72918;PMS7003;61063;55.700;26.994;2023-01-29T03:06:40;1.9;1.4;1.1
72918;PMS7003;61063;55.700;26.994;2023-01-29T03:11:50;1.5;1.3;1
72918;PMS7003;61063;55.700;26.994;2023-01-29T03:16:48;2.2;1.3;1
72918;PMS7003;61063;55.700;26.994;2023-01-29T03:21:27;1.6;1;0.8
72918;PMS7003;61063;55.700;26.994;2023-01-29T03:26:23;1.8;1.2;0.9
72918;PMS7003;61063;55.700;26.994;2023-01-29T03:31:49;1.9;1.3;0.9
72918;PMS7003;61063;55.700;26.994;2023-01-29T03:36:45;1.5;1.1;0.9
72918;PMS7003;61063;55.700;26.994;2023-01-29T03:41:27;1.7;1.1;0.9
72918;PMS7003;61063;55.700;26.994;2023-01-29T03:46:29;1.4;0.8;0.6
72918;PMS7003;61063;55.700;26.994;2023-01-29T03:51:42;1.6;1.2;0.8
72918;PMS7003;61063;55.700;26.994;2023-01-29T03:57:03;3.1;1.6;1.3
72918;PMS7003;61063;55.700;26.994;2023-01-29T04:01:28;3.1;1.9;1.5
72918;PMS7003;61063;55.700;26.994;2023-01-29T04:06:47;2;1.5;1.2
72918;PMS7003;61063;55.700;26.994;2023-01-29T04:11:40;2;1.4;1.1
72918;PMS7003;61063;55.700;26.994;2023-01-29T04:16:13;1.6;1.3;1
72918;PMS7003;61063;55.700;26.994;2023-01-29T04:21:13;1.2;1.1;0.8
72918;PMS7003;61063;55.700;26.994;2023-01-29T04:26:18;1.8;1.2;0.9
72918;PMS7003;61063;55.700;26.994;2023-01-29T04:32:02;1.6;1.3;1
72918;PMS7003;61063;55.700;26.994;2023-01-29T04:37:03;1.6;1.2;0.9
72918;PMS7003;61063;55.700;26.994;2023-01-29T04:41:15;2;1.2;0.9
72918;PMS7003;61063;55.700;26.994;2023-01-29T04:47:02;2.3;1.5;1.1
72918;PMS7003;61063;55.700;26.994;2023-01-29T04:52:03;1.8;1.3;1.1
72918;PMS7003;61063;55.700;26.994;2023-01-29T04:56:25;1.8;1.3;1
72918;PMS7003;61063;55.700;26.994;2023-01-29T05:01:37;1.7;1.2;1
72918;PMS7003;61063;55.700;26.994;2023-01-29T05:07:01;1.7;1.5;1.3
72918;PMS7003;61063;55.700;26.994;2023-01-29T05:11:27;2.2;1.4;1.1
72918;PMS7003;61063;55.700;26.994;2023-01-29T05:16:50;2.1;1.3;1
72918;PMS7003;61063;55.700;26.994;2023-01-29T05:21:51;2.2;1.3;1.1
72918;PMS7003;61063;55.700;26.994;2023-01-29T05:26:50;2.1;1.5;1.1
72918;PMS7003;61063;55.700;26.994;2023-01-29T05:31:42;2.4;1.5;1.1
72918;PMS7003;61063;55.700;26.994;2023-01-29T05:36:35;1.9;1.3;0.9
72918;PMS7003;61063;55.700;26.994;2023-01-29T05:41:57;2.7;1.3;1
72918;PMS7003;61063;55.700;26.994;2023-01-29T05:46:37;2.1;1.2;1
72918;PMS7003;61063;55.700;26.994;2023-01-29T05:51:51;1.7;1.1;0.8
72918;PMS7003;61063;55.700;26.994;2023-01-29T05:56:13;2.3;1.8;1.4
72918;PMS7003;61063;55.700;26.994;2023-01-29T06:01:39;2.3;1.7;1.4
72918;PMS7003;61063;55.700;26.994;2023-01-29T06:06:25;2.9;1.8;1.5
72918;PMS7003;61063;55.700;26.994;2023-01-29T06:11:35;2;1.5;1.3
72918;PMS7003;61063;55.700;26.994;2023-01-29T06:16:29;2.6;2.1;1.6
72918;PMS7003;61063;55.700;26.994;2023-01-29T06:21:51;2.6;2;1.6
72918;PMS7003;61063;55.700;26.994;2023-01-29T06:27:03;2.4;1.4;1.1
72918;PMS7003;61063;55.700;26.994;2023-01-29T06:31:23;3.1;1.8;1.3
72918;PMS7003;61063;55.700;26.994;2023-01-29T06:36:59;3.5;2.2;1.6
72918;PMS7003;61063;55.700;26.994;2023-01-29T06:41:25;3.2;2;1.5
72918;PMS7003;61063;55.700;26.994;2023-01-29T06:46:49;3.6;2;1.5
72918;PMS7003;61063;55.700;26.994;2023-01-29T06:51:27;3.1;2.3;1.9
72918;PMS7003;61063;55.700;26.994;2023-01-29T06:56:49;4.4;2.6;1.9
72918;PMS7003;61063;55.700;26.994;2023-01-29T07:01:13;2.7;2;1.5
72918;PMS7003;61063;55.700;26.994;2023-01-29T07:06:47;3.8;2.6;1.9
72918;PMS7003;61063;55.700;26.994;2023-01-29T07:11:49;3.3;2.9;2.2
72918;PMS7003;61063;55.700;26.994;2023-01-29T07:16:53;4.5;3.2;2.5
72918;PMS7003;61063;55.700;26.994;2023-01-29T07:22:01;4;3;2.2
72918;PMS7003;61063;55.700;26.994;2023-01-29T07:26:51;3.6;2.8;2
72918;PMS7003;61063;55.700;26.994;2023-01-29T07:32:01;4.2;3;2.2
72918;PMS7003;61063;55.700;26.994;2023-01-29T07:36:13;4.4;3;2.3
72918;PMS7003;61063;55.700;26.994;2023-01-29T07:41:47;3.9;2.9;2.3
72918;PMS7003;61063;55.700;26.994;2023-01-29T07:46:39;3.4;2.9;2.4
72918;PMS7003;61063;55.700;26.994;2023-01-29T07:51:49;3.8;3.3;2.8
72918;PMS7003;61063;55.700;26.994;2023-01-29T07:56:25;4.6;3.1;2.5
72918;PMS7003;61063;55.700;26.994;2023-01-29T08:01:47;2.9;2.4;1.8
72918;PMS7003;61063;55.700;26.994;2023-01-29T08:06:25;5;3.5;2.9
72918;PMS7003;61063;55.700;26.994;2023-01-29T08:12:01;4.7;3.5;2.7
72918;PMS7003;61063;55.700;26.994;2023-01-29T08:16:51;5;3.4;2.5
72918;PMS7003;61063;55.700;26.994;2023-01-29T08:21:49;4.5;3.4;2.6
72918;PMS7003;61063;55.700;26.994;2023-01-29T08:26:27;5.1;3.4;2.7
72918;PMS7003;61063;55.700;26.994;2023-01-29T08:31:13;4.6;3.4;2.5
72918;PMS7003;61063;55.700;26.994;2023-01-29T08:36:35;5.1;3.8;3.1
72918;PMS7003;61063;55.700;26.994;2023-01-29T08:41:23;4.5;2.9;2.3
72918;PMS7003;61063;55.700;26.994;2023-01-29T08:46:27;4.2;3.5;2.9
72918;PMS7003;61063;55.700;26.994;2023-01-29T08:51:51;5.5;3.8;3.2
72918;PMS7003;61063;55.700;26.994;2023-01-29T08:57:03;5.8;4.3;3.4
72918;PMS7003;61063;55.700;26.994;2023-01-29T09:01:27;5.2;3.8;2.9
72918;PMS7003;61063;55.700;26.994;2023-01-29T09:06:49;6.4;4.4;3.3
72918;PMS7003;61063;55.700;26.994;2023-01-29T09:11:13;5.6;4.5;3.3
72918;PMS7003;61063;55.700;26.994;2023-01-29T09:16:13;5.6;3.5;2.9
72918;PMS7003;61063;55.700;26.994;2023-01-29T09:21:13;4.9;3.4;2.7
72918;PMS7003;61063;55.700;26.994;2023-01-29T09:26:13;4.3;3.1;2.4
72918;PMS7003;61063;55.700;26.994;2023-01-29T09:32:01;5.1;3.6;2.8
72918;PMS7003;61063;55.700;26.994;2023-01-29T09:36:59;4;2.9;2.2
72918;PMS7003;61063;55.700;26.994;2023-01-29T09:41:16;5.9;4.2;3.3
72918;PMS7003;61063;55.700;26.994;2023-01-29T09:47:01;4.7;4;3
72918;PMS7003;61063;55.700;26.994;2023-01-29T09:52:04;4.6;4;3.3
72918;PMS7003;61063;55.700;26.994;2023-01-29T09:56:39;4.1;3.6;2.8
72918;PMS7003;61063;55.700;26.994;2023-01-29T10:01:26;4.9;4;3.3
72918;PMS7003;61063;55.700;26.994;2023-01-29T10:07:04;4.9;3.5;2.9
72918;PMS7003;61063;55.700;26.994;2023-01-29T10:11:29;4.7;3.8;2.8
72918;PMS7003;61063;55.700;26.994;2023-01-29T10:16:40;4.8;3.9;3.2
72918;PMS7003;61063;55.700;26.994;2023-01-29T10:21:27;5;3.9;3.1
72918;PMS7003;61063;55.700;26.994;2023-01-29T10:27:01;5.1;3.9;3.2
72918;PMS7003;61063;55.700;26.994;2023-01-29T10:31:50;4.8;4;3.1
72918;PMS7003;61063;55.700;26.994;2023-01-29T10:36:46;5.1;4.1;3.4
72918;PMS7003;61063;55.700;26.994;2023-01-29T10:42:03;5.2;4.1;2.9
72918;PMS7003;61063;55.700;26.994;2023-01-29T10:47:05;5.7;4.1;3.1
72918;PMS7003;61063;55.700;26.994;2023-01-29T10:51:16;5.7;4.2;3.3
72918;PMS7003;61063;55.700;26.994;2023-01-29T10:56:16;5.6;4.6;3.6
72918;PMS7003;61063;55.700;26.994;2023-01-29T11:01:56;5.1;3.8;3
72918;PMS7003;61063;55.700;26.994;2023-01-29T11:06:14;5.6;4.5;3.7
72918;PMS7003;61063;55.700;26.994;2023-01-29T11:11:13;6.2;5;3.6
72918;PMS7003;61063;55.700;26.994;2023-01-29T11:16:13;6.3;4.7;3.8
72918;PMS7003;61063;55.700;26.994;2023-01-29T11:21:50;5.6;4.4;3.5
72918;PMS7003;61063;55.700;26.994;2023-01-29T11:26:45;5;3.7;3.1
72918;PMS7003;61063;55.700;26.994;2023-01-29T11:31:34;5.2;4.1;3.3
72918;PMS7003;61063;55.700;26.994;2023-01-29T11:37:03;5.2;3.7;2.9
72918;PMS7003;61063;55.700;26.994;2023-01-29T11:41:41;4;2.6;1.9
72918;PMS7003;61063;55.700;26.994;2023-01-29T11:46:25;5.2;3.6;2.6
72918;PMS7003;61063;55.700;26.994;2023-01-29T11:51:19;4.5;3.3;2.8
72918;PMS7003;61063;55.700;26.994;2023-01-29T11:56:49;4.1;2.6;1.7
72918;PMS7003;61063;55.700;26.994;2023-01-29T12:01:29;5;3.4;2.5
72918;PMS7003;61063;55.700;26.994;2023-01-29T12:06:39;5.1;3.7;2.8
72918;PMS7003;61063;55.700;26.994;2023-01-29T12:12:15;4.9;4;3
72918;PMS7003;61063;55.700;26.994;2023-01-29T12:16:35;5.9;3.9;3.1
72918;PMS7003;61063;55.700;26.994;2023-01-29T12:22:03;4.8;3.7;2.8
72918;PMS7003;61063;55.700;26.994;2023-01-29T12:26:35;5.4;4.5;3.5
72918;PMS7003;61063;55.700;26.994;2023-01-29T12:32:02;5.6;4.6;3.3
72918;PMS7003;61063;55.700;26.994;2023-01-29T12:36:13;6.4;4.7;3.5
72918;PMS7003;61063;55.700;26.994;2023-01-29T12:41:50;5.1;4.1;3.2
72918;PMS7003;61063;55.700;26.994;2023-01-29T12:46:17;5.8;3.8;3
72918;PMS7003;61063;55.700;26.994;2023-01-29T12:51:52;6.2;4.5;3.6
72918;PMS7003;61063;55.700;26.994;2023-01-29T12:56:37;7.3;5.1;3.8
72918;PMS7003;61063;55.700;26.994;2023-01-29T13:01:48;7.2;4.6;3.7
72918;PMS7003;61063;55.700;26.994;2023-01-29T13:06:48;6.9;4.7;3.9
72918;PMS7003;61063;55.700;26.994;2023-01-29T13:12:03;6.8;4.9;3.7
72918;PMS7003;61063;55.700;26.994;2023-01-29T13:17:05;6.7;5.2;3.9
72918;PMS7003;61063;55.700;26.994;2023-01-29T13:21:49;6.8;4.8;3.8
72918;PMS7003;61063;55.700;26.994;2023-01-29T13:27:03;5.6;4.1;3.2
72918;PMS7003;61063;55.700;26.994;2023-01-29T13:31:12;5.9;4.8;3.7
72918;PMS7003;61063;55.700;26.994;2023-01-29T13:36:47;5.1;3.5;2.6
72918;PMS7003;61063;55.700;26.994;2023-01-29T13:41:11;6.4;4.4;3.3
72918;PMS7003;61063;55.700;26.994;2023-01-29T13:46:47;6.8;5.4;4.1
72918;PMS7003;61063;55.700;26.994;2023-01-29T13:51:31;5.2;4.5;3.7
72918;PMS7003;61063;55.700;26.994;2023-01-29T13:57:03;5.7;4.9;4
72918;PMS7003;61063;55.700;26.994;2023-01-29T14:02:40;7;5;4
72918;PMS7003;61063;55.700;26.994;2023-01-29T14:07:03;5.5;4.5;3.5
72918;PMS7003;61063;55.700;26.994;2023-01-29T14:11:51;7.3;5.1;4.1
72918;PMS7003;61063;55.700;26.994;2023-01-29T14:17:05;5.5;4.2;3.1
72918;PMS7003;61063;55.700;26.994;2023-01-29T14:21:19;5.8;4.7;3.6
72918;PMS7003;61063;55.700;26.994;2023-01-29T14:26:21;6.2;4.2;3.5
72918;PMS7003;61063;55.700;26.994;2023-01-29T14:31:46;6.4;4.6;3.6
72918;PMS7003;61063;55.700;26.994;2023-01-29T14:36:27;6.5;4.5;3.8
72918;PMS7003;61063;55.700;26.994;2023-01-29T14:41:49;5.3;4.2;3.4
72918;PMS7003;61063;55.700;26.994;2023-01-29T14:46:41;5.9;4.6;3.6
72918;PMS7003;61063;55.700;26.994;2023-01-29T14:52:01;5.6;4;3.1
72918;PMS7003;61063;55.700;26.994;2023-01-29T14:56:13;6.2;5;3.7
72918;PMS7003;61063;55.700;26.994;2023-01-29T15:02:00;6.2;4.5;3.3
72918;PMS7003;61063;55.700;26.994;2023-01-29T15:06:37;5.8;4.2;3.3
72918;PMS7003;61063;55.700;26.994;2023-01-29T15:11:14;5.6;3.9;3
72918;PMS7003;61063;55.700;26.994;2023-01-29T15:16:41;5.1;4;3
72918;PMS7003;61063;55.700;26.994;2023-01-29T15:21:25;5.2;4;3.2
72918;PMS7003;61063;55.700;26.994;2023-01-29T15:26:49;5.2;4.4;3.5
72918;PMS7003;61063;55.700;26.994;2023-01-29T15:31:25;4.4;3.8;2.9
72918;PMS7003;61063;55.700;26.994;2023-01-29T15:36:37;4.7;4;3.1
72918;PMS7003;61063;55.700;26.994;2023-01-29T15:41:37;5.6;4.8;3.9
72918;PMS7003;61063;55.700;26.994;2023-01-29T15:46:51;4.4;3.4;2.6
72918;PMS7003;61063;55.700;26.994;2023-01-29T15:51:39;5.9;4.6;3.7
72918;PMS7003;61063;55.700;26.994;2023-01-29T15:56:51;5.9;4.4;3.7
72918;PMS7003;61063;55.700;26.994;2023-01-29T16:01:39;5.6;3.8;3.1
72918;PMS7003;61063;55.700;26.994;2023-01-29T16:06:33;6.1;4.7;3.6
72918;PMS7003;61063;55.700;26.994;2023-01-29T16:11:25;5;4.3;3.4
72918;PMS7003;61063;55.700;26.994;2023-01-29T16:16:23;6.5;4.1;3.2
72918;PMS7003;61063;55.700;26.994;2023-01-29T16:22:03;5.6;3.8;3.1
72918;PMS7003;61063;55.700;26.994;2023-01-29T16:27:02;5.3;4.1;3.3
72918;PMS7003;61063;55.700;26.994;2023-01-29T16:31:35;5.2;4.3;3.4
72918;PMS7003;61063;55.700;26.994;2023-01-29T16:37:01;5.6;4.5;3.7
72918;PMS7003;61063;55.700;26.994;2023-01-29T16:42:18;7.3;5.3;4.2
72918;PMS7003;61063;55.700;26.994;2023-01-29T16:46:43;5.8;4.6;3.5
72918;PMS7003;61063;55.700;26.994;2023-01-29T16:51:13;7.8;5.8;4.6
72918;PMS7003;61063;55.700;26.994;2023-01-29T16:57:05;6;5.3;3.9
72918;PMS7003;61063;55.700;26.994;2023-01-29T17:01:13;7.4;5.7;4.4
72918;PMS7003;61063;55.700;26.994;2023-01-29T17:06:37;8.7;6.7;4.9
72918;PMS7003;61063;55.700;26.994;2023-01-29T17:11:37;7.8;6.4;4.8
72918;PMS7003;61063;55.700;26.994;2023-01-29T17:16:52;7.8;6;4.6
72918;PMS7003;61063;55.700;26.994;2023-01-29T17:21:51;8.9;6.9;5.1
72918;PMS7003;61063;55.700;26.994;2023-01-29T17:26:39;7.8;6.6;5.1
72918;PMS7003;61063;55.700;26.994;2023-01-29T17:31:59;8.2;6.3;4.5
72918;PMS7003;61063;55.700;26.994;2023-01-29T17:36:35;8;6.2;4.5
72918;PMS7003;61063;55.700;26.994;2023-01-29T17:41:49;9.6;6.5;4.9
72918;PMS7003;61063;55.700;26.994;2023-01-29T17:46:13;7.5;5.9;4.5
72918;PMS7003;61063;55.700;26.994;2023-01-29T17:51:39;9.1;6.6;4.9
72918;PMS7003;61063;55.700;26.994;2023-01-29T17:56:37;6.8;6;4.2
72918;PMS7003;61063;55.700;26.994;2023-01-29T18:01:37;8.7;6.7;4.9
72918;PMS7003;61063;55.700;26.994;2023-01-29T18:06:49;7.8;5.5;4.3
72918;PMS7003;61063;55.700;26.994;2023-01-29T18:11:47;7.8;6;4.5
72918;PMS7003;61063;55.700;26.994;2023-01-29T18:16:49;8;6;4.7
72918;PMS7003;61063;55.700;26.994;2023-01-29T18:21:23;6.6;4.7;3.5
72918;PMS7003;61063;55.700;26.994;2023-01-29T18:27:01;7.4;5.6;4.4
72918;PMS7003;61063;55.700;26.994;2023-01-29T18:31:13;8.4;6.2;4.5
72918;PMS7003;61063;55.700;26.994;2023-01-29T18:36:43;7.2;5.6;4.4
72918;PMS7003;61063;55.700;26.994;2023-01-29T18:41:13;7.3;5.8;4.4
72918;PMS7003;61063;55.700;26.994;2023-01-29T18:46:50;5.6;4.4;3.4
72918;PMS7003;61063;55.700;26.994;2023-01-29T18:51:27;6.5;5.3;4.1
72918;PMS7003;61063;55.700;26.994;2023-01-29T18:56:13;7.5;5.3;4
72918;PMS7003;61063;55.700;26.994;2023-01-29T19:01:47;6.2;5.3;4.2
72918;PMS7003;61063;55.700;26.994;2023-01-29T19:06:37;7.4;5.5;4.5
72918;PMS7003;61063;55.700;26.994;2023-01-29T19:12:01;6;4.8;3.7
72918;PMS7003;61063;55.700;26.994;2023-01-29T19:16:13;6.1;4.9;3.8
72918;PMS7003;61063;55.700;26.994;2023-01-29T19:22:01;6.7;4.8;4
72918;PMS7003;61063;55.700;26.994;2023-01-29T19:26:13;6;4.6;3.7
72918;PMS7003;61063;55.700;26.994;2023-01-29T19:31:43;6.4;5.1;3.8
72918;PMS7003;61063;55.700;26.994;2023-01-29T19:36:25;4.8;3.9;2.7
72918;PMS7003;61063;55.700;26.994;2023-01-29T19:41:51;5.2;4.5;3.8
72918;PMS7003;61063;55.700;26.994;2023-01-29T19:46:27;5.2;3.9;3
72918;PMS7003;61063;55.700;26.994;2023-01-29T19:52:03;6.4;4.7;3.6
72918;PMS7003;61063;55.700;26.994;2023-01-29T19:56:51;5.2;3.8;2.9
72918;PMS7003;61063;55.700;26.994;2023-01-29T20:01:59;4.5;3.7;2.9
72918;PMS7003;61063;55.700;26.994;2023-01-29T20:07:01;5.4;3.3;2.7
72918;PMS7003;61063;55.700;26.994;2023-01-29T20:11:51;4.2;3.6;2.7
72918;PMS7003;61063;55.700;26.994;2023-01-29T20:17:03;4.3;3;2.4
72918;PMS7003;61063;55.700;26.994;2023-01-29T20:21:14;4;3.2;2.5
72918;PMS7003;61063;55.700;26.994;2023-01-29T20:26:51;4.1;3.4;2.4
72918;PMS7003;61063;55.700;26.994;2023-01-29T20:31:13;3.9;3;2.2
72918;PMS7003;61063;55.700;26.994;2023-01-29T20:36:37;3.6;3;2.3
72918;PMS7003;61063;55.700;26.994;2023-01-29T20:41:39;3.5;2.6;2.1
72918;PMS7003;61063;55.700;26.994;2023-01-29T20:47:01;4.7;3.2;2.5
72918;PMS7003;61063;55.700;26.994;2023-01-29T20:51:37;3.1;2.8;2.2
72918;PMS7003;61063;55.700;26.994;2023-01-29T20:57:03;3.5;3;2.3
72918;PMS7003;61063;55.700;26.994;2023-01-29T21:01:43;3.5;2.8;2.2
72918;PMS7003;61063;55.700;26.994;2023-01-29T21:06:39;3.9;2.6;1.8
72918;PMS7003;61063;55.700;26.994;2023-01-29T21:11:39;3.2;2.6;2
72918;PMS7003;61063;55.700;26.994;2023-01-29T21:16:25;3.8;2.4;2
72918;PMS7003;61063;55.700;26.994;2023-01-29T21:21:49;3.4;2.2;1.8
72918;PMS7003;61063;55.700;26.994;2023-01-29T21:26:25;3.1;2.2;1.7
72918;PMS7003;61063;55.700;26.994;2023-01-29T21:31:37;3.1;1.9;1.4
72918;PMS7003;61063;55.700;26.994;2023-01-29T21:36:39;2.7;2.4;1.8
72918;PMS7003;61063;55.700;26.994;2023-01-29T21:42:05;3.4;2.2;1.9
72918;PMS7003;61063;55.700;26.994;2023-01-29T21:46:39;2.9;1.7;1.4
72918;PMS7003;61063;55.700;26.994;2023-01-29T21:51:47;2.9;1.9;1.3
72918;PMS7003;61063;55.700;26.994;2023-01-29T21:56:23;2.4;1.7;1.3
72918;PMS7003;61063;55.700;26.994;2023-01-29T22:01:35;1.7;1.6;1.3
72918;PMS7003;61063;55.700;26.994;2023-01-29T22:06:23;3;2.3;1.8
72918;PMS7003;61063;55.700;26.994;2023-01-29T22:11:39;2.7;1.9;1.5
72918;PMS7003;61063;55.700;26.994;2023-01-29T22:17:05;3.2;2;1.5
72918;PMS7003;61063;55.700;26.994;2023-01-29T22:22:03;2.7;2;1.7
72918;PMS7003;61063;55.700;26.994;2023-01-29T22:26:13;2.5;2;1.7
72918;PMS7003;61063;55.700;26.994;2023-01-29T22:32:03;2.1;1.8;1.4
72918;PMS7003;61063;55.700;26.994;2023-01-29T22:37:03;2.6;1.7;1.3
72918;PMS7003;61063;55.700;26.994;2023-01-29T22:41:41;2.5;1.9;1.3
72918;PMS7003;61063;55.700;26.994;2023-01-29T22:46:13;2.3;1.7;1.4
72918;PMS7003;61063;55.700;26.994;2023-01-29T22:52:05;1.8;1.2;1.1
72918;PMS7003;61063;55.700;26.994;2023-01-29T22:56:13;1.8;1.2;1
72918;PMS7003;61063;55.700;26.994;2023-01-29T23:01:13;2;1.4;1.2
72918;PMS7003;61063;55.700;26.994;2023-01-29T23:06:13;1.9;1.2;1.1
72918;PMS7003;61063;55.700;26.994;2023-01-29T23:11:45;1.2;1;0.8
72918;PMS7003;61063;55.700;26.994;2023-01-29T23:16:47;1.8;1.1;0.8
72918;PMS7003;61063;55.700;26.994;2023-01-29T23:21:13;1.5;1;0.7
72918;PMS7003;61063;55.700;26.994;2023-01-29T23:27:01;1.2;1;0.8
72918;PMS7003;61063;55.700;26.994;2023-01-29T23:31:29;1.2;0.9;0.7
72918;PMS7003;61063;55.700;26.994;2023-01-29T23:36:43;1.1;0.9;0.7
72918;PMS7003;61063;55.700;26.994;2023-01-29T23:41:13;1.5;1;0.9
72918;PMS7003;61063;55.700;26.994;2023-01-29T23:46:59;1.7;1;0.9
72918;PMS7003;61063;55.700;26.994;2023-01-29T23:51:35;1.9;1;0.8
72918;PMS7003;61063;55.700;26.994;2023-01-29T23:56:13;2.4;1.2;0.8
